sensor_id;sensor_type;location;lat;lon;timestamp;pressure;altitude;pressure_sealevel;temperature;humidity
38530;BME280;24301;54.332;48.386;2022-10-22T00:01:03;99140.38;;;0.45;76.44
38530;BME280;24301;54.332;48.386;2022-10-22T00:03:29;99142.19;;;0.47;76.37
38530;BME280;24301;54.332;48.386;2022-10-22T00:05:55;99131.84;;;0.47;75.73
38530;BME280;24301;54.332;48.386;2022-10-22T00:08:21;99141.44;;;0.51;76.64
38530;BME280;24301;54.332;48.386;2022-10-22T00:10:47;99144.03;;;0.51;75.75
38530;BME280;24301;54.332;48.386;2022-10-22T00:13:14;99144.81;;;0.49;75.87
38530;BME280;24301;54.332;48.386;2022-10-22T00:15:40;99149.94;;;0.47;76.35
38530;BME280;24301;54.332;48.386;2022-10-22T00:18:06;99149.13;;;0.48;76.09
38530;BME280;24301;54.332;48.386;2022-10-22T00:20:32;99150.09;;;0.52;76.57
38530;BME280;24301;54.332;48.386;2022-10-22T00:22:58;99144.81;;;0.49;75.93
38530;BME280;24301;54.332;48.386;2022-10-22T00:25:24;99156.03;;;0.49;76.23
38530;BME280;24301;54.332;48.386;2022-10-22T00:27:50;99154.38;;;0.51;76.31
38530;BME280;24301;54.332;48.386;2022-10-22T00:30:16;99159.63;;;0.54;76.68
38530;BME280;24301;54.332;48.386;2022-10-22T00:32:42;99169.97;;;0.53;76.78
38530;BME280;24301;54.332;48.386;2022-10-22T00:35:07;99170.78;;;0.52;76.77
38530;BME280;24301;54.332;48.386;2022-10-22T00:37:33;99166.38;;;0.49;76.30
38530;BME280;24301;54.332;48.386;2022-10-22T00:39:59;99185.41;;;0.51;76.94
38530;BME280;24301;54.332;48.386;2022-10-22T00:42:26;99181.91;;;0.49;77.03
38530;BME280;24301;54.332;48.386;2022-10-22T00:47:49;99185.34;;;0.48;76.78
38530;BME280;24301;54.332;48.386;2022-10-22T00:50:27;99188.38;;;0.35;76.46
38530;BME280;24301;54.332;48.386;2022-10-22T00:52:56;99195.22;;;0.33;76.52
38530;BME280;24301;54.332;48.386;2022-10-22T00:55:25;99189.94;;;0.30;76.24
38530;BME280;24301;54.332;48.386;2022-10-22T00:57:53;99208.03;;;0.28;76.18
38530;BME280;24301;54.332;48.386;2022-10-22T01:00:20;99207.97;;;0.26;77.04
38530;BME280;24301;54.332;48.386;2022-10-22T01:02:48;99212.31;;;0.27;77.16
38530;BME280;24301;54.332;48.386;2022-10-22T01:05:16;99215.88;;;0.31;77.64
38530;BME280;24301;54.332;48.386;2022-10-22T01:07:51;99213.28;;;0.31;77.37
38530;BME280;24301;54.332;48.386;2022-10-22T01:18:16;99218.78;;;0.13;77.41
38530;BME280;24301;54.332;48.386;2022-10-22T01:23:54;99235.00;;;0.09;77.44
38530;BME280;24301;54.332;48.386;2022-10-22T01:26:40;99231.38;;;0.02;77.58
38530;BME280;24301;54.332;48.386;2022-10-22T01:29:12;99236.31;;;-0.04;77.61
38530;BME280;24301;54.332;48.386;2022-10-22T01:31:53;99236.28;;;-0.06;77.53
38530;BME280;24301;54.332;48.386;2022-10-22T01:34:22;99236.22;;;-0.07;77.62
38530;BME280;24301;54.332;48.386;2022-10-22T01:36:50;99234.47;;;-0.08;77.93
38530;BME280;24301;54.332;48.386;2022-10-22T01:39:18;99235.19;;;-0.12;77.43
38530;BME280;24301;54.332;48.386;2022-10-22T01:41:45;99239.72;;;-0.05;78.42
38530;BME280;24301;54.332;48.386;2022-10-22T01:44:28;99244.28;;;0.02;78.48
38530;BME280;24301;54.332;48.386;2022-10-22T01:50:03;99247.91;;;0.07;78.41
38530;BME280;24301;54.332;48.386;2022-10-22T01:53:12;99255.59;;;0.06;78.29
38530;BME280;24301;54.332;48.386;2022-10-22T01:55:54;99252.72;;;-0.04;77.47
38530;BME280;24301;54.332;48.386;2022-10-22T01:59:07;99251.69;;;-0.09;77.20
38530;BME280;24301;54.332;48.386;2022-10-22T02:04:42;99255.72;;;-0.17;77.68
38530;BME280;24301;54.332;48.386;2022-10-22T02:07:12;99256.72;;;-0.13;77.58
38530;BME280;24301;54.332;48.386;2022-10-22T02:09:40;99266.28;;;-0.11;77.83
38530;BME280;24301;54.332;48.386;2022-10-22T02:12:08;99258.53;;;-0.11;78.11
38530;BME280;24301;54.332;48.386;2022-10-22T02:14:38;99259.44;;;-0.09;78.16
38530;BME280;24301;54.332;48.386;2022-10-22T02:17:07;99273.44;;;-0.02;78.18
38530;BME280;24301;54.332;48.386;2022-10-22T02:19:54;99270.91;;;-0.01;77.89
38530;BME280;24301;54.332;48.386;2022-10-22T02:22:21;99291.59;;;-0.01;77.37
38530;BME280;24301;54.332;48.386;2022-10-22T02:24:48;99282.81;;;-0.06;77.70
38530;BME280;24301;54.332;48.386;2022-10-22T02:27:26;99287.91;;;-0.07;77.21
38530;BME280;24301;54.332;48.386;2022-10-22T02:30:10;99289.31;;;-0.17;76.99
38530;BME280;24301;54.332;48.386;2022-10-22T02:32:43;99290.66;;;-0.28;76.55
38530;BME280;24301;54.332;48.386;2022-10-22T02:35:13;99290.47;;;-0.35;77.00
38530;BME280;24301;54.332;48.386;2022-10-22T02:37:40;99292.00;;;-0.40;76.74
38530;BME280;24301;54.332;48.386;2022-10-22T02:40:07;99293.44;;;-0.48;76.53
38530;BME280;24301;54.332;48.386;2022-10-22T02:42:34;99294.81;;;-0.58;76.58
38530;BME280;24301;54.332;48.386;2022-10-22T02:45:02;99298.88;;;-0.65;76.50
38530;BME280;24301;54.332;48.386;2022-10-22T02:47:29;99309.00;;;-0.71;76.58
38530;BME280;24301;54.332;48.386;2022-10-22T02:49:55;99301.09;;;-0.76;77.14
38530;BME280;24301;54.332;48.386;2022-10-22T02:52:20;99311.47;;;-0.74;77.12
38530;BME280;24301;54.332;48.386;2022-10-22T02:54:46;99308.03;;;-0.75;77.01
38530;BME280;24301;54.332;48.386;2022-10-22T02:57:12;99307.13;;;-0.75;77.12
38530;BME280;24301;54.332;48.386;2022-10-22T02:59:38;99318.19;;;-0.79;76.75
38530;BME280;24301;54.332;48.386;2022-10-22T03:02:04;99316.34;;;-0.82;76.76
38530;BME280;24301;54.332;48.386;2022-10-22T03:04:35;99320.53;;;-0.85;76.77
38530;BME280;24301;54.332;48.386;2022-10-22T03:07:15;99328.22;;;-0.87;76.82
38530;BME280;24301;54.332;48.386;2022-10-22T03:09:41;99325.53;;;-0.90;76.94
38530;BME280;24301;54.332;48.386;2022-10-22T03:12:07;99329.75;;;-0.92;76.32
38530;BME280;24301;54.332;48.386;2022-10-22T03:14:34;99326.13;;;-0.97;76.61
38530;BME280;24301;54.332;48.386;2022-10-22T03:17:00;99328.84;;;-0.93;76.54
38530;BME280;24301;54.332;48.386;2022-10-22T03:19:26;99340.13;;;-0.91;76.95
38530;BME280;24301;54.332;48.386;2022-10-22T03:22:19;99337.44;;;-0.94;76.40
38530;BME280;24301;54.332;48.386;2022-10-22T03:24:50;99342.47;;;-0.97;76.70
38530;BME280;24301;54.332;48.386;2022-10-22T03:27:23;99343.41;;;-0.95;76.74
38530;BME280;24301;54.332;48.386;2022-10-22T03:29:51;99346.69;;;-0.76;76.99
38530;BME280;24301;54.332;48.386;2022-10-22T03:32:17;99352.47;;;-0.35;77.07
38530;BME280;24301;54.332;48.386;2022-10-22T03:34:52;99346.41;;;0.15;76.51
38530;BME280;24301;54.332;48.386;2022-10-22T03:37:19;99357.72;;;0.74;75.40
38530;BME280;24301;54.332;48.386;2022-10-22T03:39:52;99350.06;;;1.36;74.32
38530;BME280;24301;54.332;48.386;2022-10-22T03:43:07;99363.22;;;2.42;72.99
38530;BME280;24301;54.332;48.386;2022-10-22T03:45:33;99361.72;;;3.30;70.79
38530;BME280;24301;54.332;48.386;2022-10-22T03:48:05;99365.28;;;4.27;68.39
38530;BME280;24301;54.332;48.386;2022-10-22T03:50:32;99373.66;;;5.22;65.96
38530;BME280;24301;54.332;48.386;2022-10-22T03:52:57;99365.25;;;6.20;63.53
38530;BME280;24301;54.332;48.386;2022-10-22T03:55:28;99373.81;;;7.24;60.50
38530;BME280;24301;54.332;48.386;2022-10-22T03:57:54;99372.38;;;8.09;58.48
38530;BME280;24301;54.332;48.386;2022-10-22T04:00:20;99374.13;;;8.97;55.92
38530;BME280;24301;54.332;48.386;2022-10-22T04:02:46;99374.81;;;9.64;53.26
38530;BME280;24301;54.332;48.386;2022-10-22T04:05:12;99371.94;;;10.09;51.12
38530;BME280;24301;54.332;48.386;2022-10-22T04:07:38;99374.97;;;10.78;50.23
38530;BME280;24301;54.332;48.386;2022-10-22T04:10:04;99379.63;;;11.39;48.27
38530;BME280;24301;54.332;48.386;2022-10-22T04:12:30;99372.19;;;11.70;46.33
38530;BME280;24301;54.332;48.386;2022-10-22T04:14:56;99375.53;;;11.83;44.84
38530;BME280;24301;54.332;48.386;2022-10-22T04:17:22;99375.75;;;12.32;43.98
38530;BME280;24301;54.332;48.386;2022-10-22T04:19:48;99379.25;;;12.87;42.68
38530;BME280;24301;54.332;48.386;2022-10-22T04:22:14;99385.56;;;13.29;41.45
38530;BME280;24301;54.332;48.386;2022-10-22T04:24:40;99376.38;;;13.48;39.30
38530;BME280;24301;54.332;48.386;2022-10-22T04:27:05;99377.22;;;13.50;38.93
38530;BME280;24301;54.332;48.386;2022-10-22T04:29:31;99384.91;;;13.63;38.00
38530;BME280;24301;54.332;48.386;2022-10-22T04:31:57;99390.81;;;13.76;37.36
38530;BME280;24301;54.332;48.386;2022-10-22T04:34:26;99394.78;;;14.35;36.49
38530;BME280;24301;54.332;48.386;2022-10-22T04:36:53;99402.38;;;14.87;35.31
38530;BME280;24301;54.332;48.386;2022-10-22T04:39:19;99409.25;;;15.29;34.65
38530;BME280;24301;54.332;48.386;2022-10-22T04:41:44;99413.72;;;15.91;33.68
38530;BME280;24301;54.332;48.386;2022-10-22T04:44:10;99427.91;;;16.19;32.87
38530;BME280;24301;54.332;48.386;2022-10-22T04:46:36;99430.69;;;16.71;32.58
38530;BME280;24301;54.332;48.386;2022-10-22T04:49:02;99444.63;;;17.05;31.69
38530;BME280;24301;54.332;48.386;2022-10-22T04:51:29;99440.38;;;18.01;30.84
38530;BME280;24301;54.332;48.386;2022-10-22T04:53:56;99447.25;;;18.97;29.56
38530;BME280;24301;54.332;48.386;2022-10-22T04:56:24;99458.69;;;19.63;28.40
38530;BME280;24301;54.332;48.386;2022-10-22T04:58:53;99469.75;;;20.70;27.30
38530;BME280;24301;54.332;48.386;2022-10-22T05:01:22;99463.59;;;21.24;26.20
38530;BME280;24301;54.332;48.386;2022-10-22T05:03:50;99474.00;;;21.81;25.53
38530;BME280;24301;54.332;48.386;2022-10-22T05:06:18;99473.56;;;22.23;24.98
38530;BME280;24301;54.332;48.386;2022-10-22T05:08:46;99476.75;;;22.63;24.20
38530;BME280;24301;54.332;48.386;2022-10-22T05:11:17;99483.72;;;23.29;23.08
38530;BME280;24301;54.332;48.386;2022-10-22T05:13:44;99482.28;;;23.82;22.95
38530;BME280;24301;54.332;48.386;2022-10-22T05:16:10;99491.59;;;23.77;21.99
38530;BME280;24301;54.332;48.386;2022-10-22T05:18:38;99490.72;;;23.76;21.60
38530;BME280;24301;54.332;48.386;2022-10-22T05:21:13;99503.78;;;24.11;20.86
38530;BME280;24301;54.332;48.386;2022-10-22T05:23:40;99492.94;;;24.13;20.59
38530;BME280;24301;54.332;48.386;2022-10-22T05:26:08;99510.59;;;24.32;20.49
38530;BME280;24301;54.332;48.386;2022-10-22T05:28:34;99505.25;;;24.59;20.05
38530;BME280;24301;54.332;48.386;2022-10-22T05:31:01;99507.72;;;24.62;19.84
38530;BME280;24301;54.332;48.386;2022-10-22T05:33:29;99518.97;;;24.84;19.62
38530;BME280;24301;54.332;48.386;2022-10-22T05:35:55;99516.69;;;24.77;19.48
38530;BME280;24301;54.332;48.386;2022-10-22T05:38:21;99511.56;;;24.73;19.20
38530;BME280;24301;54.332;48.386;2022-10-22T05:40:48;99521.16;;;25.32;18.80
38530;BME280;24301;54.332;48.386;2022-10-22T05:43:23;99525.00;;;25.55;18.24
38530;BME280;24301;54.332;48.386;2022-10-22T05:45:49;99529.31;;;25.58;18.27
38530;BME280;24301;54.332;48.386;2022-10-22T05:48:14;99527.72;;;25.68;18.25
38530;BME280;24301;54.332;48.386;2022-10-22T05:50:40;99532.53;;;25.89;18.07
38530;BME280;24301;54.332;48.386;2022-10-22T05:53:06;99540.00;;;25.98;17.79
38530;BME280;24301;54.332;48.386;2022-10-22T05:55:36;99538.72;;;25.78;17.42
38530;BME280;24301;54.332;48.386;2022-10-22T05:58:03;99539.09;;;25.59;17.23
38530;BME280;24301;54.332;48.386;2022-10-22T06:00:29;99538.28;;;25.84;17.32
38530;BME280;24301;54.332;48.386;2022-10-22T06:02:55;99538.72;;;26.04;17.02
38530;BME280;24301;54.332;48.386;2022-10-22T06:05:22;99538.69;;;26.43;16.80
38530;BME280;24301;54.332;48.386;2022-10-22T06:07:48;99544.72;;;26.33;16.85
38530;BME280;24301;54.332;48.386;2022-10-22T06:10:16;99545.13;;;26.53;16.00
38530;BME280;24301;54.332;48.386;2022-10-22T06:12:42;99539.63;;;26.67;16.51
38530;BME280;24301;54.332;48.386;2022-10-22T06:15:11;99548.28;;;26.47;16.36
38530;BME280;24301;54.332;48.386;2022-10-22T06:17:37;99556.28;;;27.10;16.24
38530;BME280;24301;54.332;48.386;2022-10-22T06:20:03;99547.06;;;27.97;15.75
38530;BME280;24301;54.332;48.386;2022-10-22T06:22:29;99558.13;;;28.62;14.72
38530;BME280;24301;54.332;48.386;2022-10-22T06:24:55;99556.69;;;29.14;14.21
38530;BME280;24301;54.332;48.386;2022-10-22T06:27:21;99567.63;;;29.56;13.81
38530;BME280;24301;54.332;48.386;2022-10-22T06:29:47;99566.38;;;29.81;13.46
38530;BME280;24301;54.332;48.386;2022-10-22T06:32:13;99572.38;;;29.85;13.21
38530;BME280;24301;54.332;48.386;2022-10-22T06:34:39;99575.28;;;30.15;13.14
38530;BME280;24301;54.332;48.386;2022-10-22T06:37:05;99566.66;;;30.31;12.90
38530;BME280;24301;54.332;48.386;2022-10-22T06:39:31;99585.00;;;30.48;12.75
38530;BME280;24301;54.332;48.386;2022-10-22T06:41:57;99577.38;;;30.63;12.53
38530;BME280;24301;54.332;48.386;2022-10-22T06:44:23;99585.16;;;30.47;12.26
38530;BME280;24301;54.332;48.386;2022-10-22T06:46:50;99584.16;;;30.48;11.99
38530;BME280;24301;54.332;48.386;2022-10-22T06:49:19;99585.72;;;30.50;12.06
38530;BME280;24301;54.332;48.386;2022-10-22T06:51:49;99588.97;;;30.44;11.77
38530;BME280;24301;54.332;48.386;2022-10-22T06:54:16;99585.69;;;30.72;12.03
38530;BME280;24301;54.332;48.386;2022-10-22T06:56:41;99588.19;;;31.14;11.91
38530;BME280;24301;54.332;48.386;2022-10-22T06:59:07;99588.91;;;31.16;11.91
38530;BME280;24301;54.332;48.386;2022-10-22T07:01:34;99596.47;;;31.03;11.75
38530;BME280;24301;54.332;48.386;2022-10-22T07:04:00;99601.59;;;30.55;11.82
38530;BME280;24301;54.332;48.386;2022-10-22T07:06:29;99596.66;;;30.39;11.80
38530;BME280;24301;54.332;48.386;2022-10-22T07:08:57;99604.09;;;30.16;11.99
38530;BME280;24301;54.332;48.386;2022-10-22T07:11:26;99597.94;;;29.71;11.94
38530;BME280;24301;54.332;48.386;2022-10-22T07:13:54;99594.00;;;28.76;12.46
38530;BME280;24301;54.332;48.386;2022-10-22T07:16:21;99588.28;;;29.13;12.55
38530;BME280;24301;54.332;48.386;2022-10-22T07:18:47;99588.78;;;29.18;12.23
38530;BME280;24301;54.332;48.386;2022-10-22T07:21:16;99600.91;;;29.24;12.36
38530;BME280;24301;54.332;48.386;2022-10-22T07:23:42;99607.47;;;29.10;12.27
38530;BME280;24301;54.332;48.386;2022-10-22T07:26:12;99606.50;;;28.65;12.28
38530;BME280;24301;54.332;48.386;2022-10-22T07:28:39;99611.31;;;28.50;12.40
38530;BME280;24301;54.332;48.386;2022-10-22T07:31:08;99604.06;;;28.39;13.01
38530;BME280;24301;54.332;48.386;2022-10-22T07:33:34;99614.88;;;28.17;12.94
38530;BME280;24301;54.332;48.386;2022-10-22T07:36:03;99604.19;;;27.79;12.95
38530;BME280;24301;54.332;48.386;2022-10-22T07:38:29;99610.88;;;27.98;13.29
38530;BME280;24301;54.332;48.386;2022-10-22T07:40:57;99608.31;;;28.08;12.93
38530;BME280;24301;54.332;48.386;2022-10-22T07:43:23;99612.22;;;28.04;12.72
38530;BME280;24301;54.332;48.386;2022-10-22T07:45:49;99607.66;;;27.93;12.78
38530;BME280;24301;54.332;48.386;2022-10-22T07:48:16;99602.28;;;27.93;12.81
38530;BME280;24301;54.332;48.386;2022-10-22T07:50:42;99610.19;;;27.47;12.81
38530;BME280;24301;54.332;48.386;2022-10-22T07:53:08;99615.34;;;25.85;13.94
38530;BME280;24301;54.332;48.386;2022-10-22T07:55:34;99598.28;;;22.93;15.42
38530;BME280;24301;54.332;48.386;2022-10-22T07:58:00;99599.06;;;19.85;18.08
38530;BME280;24301;54.332;48.386;2022-10-22T08:00:26;99597.03;;;17.55;19.96
38530;BME280;24301;54.332;48.386;2022-10-22T08:02:52;99598.22;;;15.61;21.81
38530;BME280;24301;54.332;48.386;2022-10-22T08:05:21;99600.16;;;14.33;23.05
38530;BME280;24301;54.332;48.386;2022-10-22T08:07:46;99603.38;;;12.95;24.28
38530;BME280;24301;54.332;48.386;2022-10-22T08:10:13;99603.75;;;11.89;25.70
38530;BME280;24301;54.332;48.386;2022-10-22T08:12:39;99599.81;;;11.36;25.78
38530;BME280;24301;54.332;48.386;2022-10-22T08:15:05;99607.09;;;11.02;26.75
38530;BME280;24301;54.332;48.386;2022-10-22T08:17:32;99597.00;;;9.91;27.67
38530;BME280;24301;54.332;48.386;2022-10-22T08:19:57;99601.41;;;9.41;28.40
38530;BME280;24301;54.332;48.386;2022-10-22T08:22:23;99610.19;;;9.25;28.54
38530;BME280;24301;54.332;48.386;2022-10-22T08:24:49;99611.03;;;9.05;29.16
38530;BME280;24301;54.332;48.386;2022-10-22T08:27:16;99605.78;;;8.99;29.52
38530;BME280;24301;54.332;48.386;2022-10-22T08:29:42;99600.50;;;8.97;29.49
38530;BME280;24301;54.332;48.386;2022-10-22T08:32:08;99589.97;;;8.82;29.34
38530;BME280;24301;54.332;48.386;2022-10-22T08:34:33;99601.34;;;8.77;29.53
38530;BME280;24301;54.332;48.386;2022-10-22T08:36:59;99603.03;;;8.61;30.17
38530;BME280;24301;54.332;48.386;2022-10-22T08:39:25;99596.81;;;8.44;30.56
38530;BME280;24301;54.332;48.386;2022-10-22T08:50:57;99604.41;;;7.91;32.01
38530;BME280;24301;54.332;48.386;2022-10-22T08:53:35;99615.56;;;7.62;32.66
38530;BME280;24301;54.332;48.386;2022-10-22T08:56:03;99613.56;;;7.31;33.36
38530;BME280;24301;54.332;48.386;2022-10-22T08:58:39;99619.63;;;7.27;33.59
38530;BME280;24301;54.332;48.386;2022-10-22T09:01:20;99612.69;;;7.31;34.97
38530;BME280;24301;54.332;48.386;2022-10-22T09:03:58;99615.41;;;7.39;34.64
38530;BME280;24301;54.332;48.386;2022-10-22T09:06:31;99614.59;;;7.47;34.25
38530;BME280;24301;54.332;48.386;2022-10-22T09:08:59;99612.66;;;7.25;34.29
38530;BME280;24301;54.332;48.386;2022-10-22T09:11:27;99606.41;;;7.10;34.95
38530;BME280;24301;54.332;48.386;2022-10-22T09:13:55;99604.72;;;7.15;34.72
38530;BME280;24301;54.332;48.386;2022-10-22T09:19:42;99610.94;;;7.31;34.72
38530;BME280;24301;54.332;48.386;2022-10-22T09:22:17;99600.31;;;7.10;34.64
38530;BME280;24301;54.332;48.386;2022-10-22T09:24:51;99605.22;;;6.77;35.77
38530;BME280;24301;54.332;48.386;2022-10-22T09:27:24;99607.81;;;6.79;36.17
38530;BME280;24301;54.332;48.386;2022-10-22T09:29:50;99615.84;;;6.94;35.75
38530;BME280;24301;54.332;48.386;2022-10-22T09:32:17;99601.09;;;7.01;35.92
38530;BME280;24301;54.332;48.386;2022-10-22T09:34:48;99600.31;;;7.10;35.62
38530;BME280;24301;54.332;48.386;2022-10-22T09:37:17;99602.88;;;7.05;35.96
38530;BME280;24301;54.332;48.386;2022-10-22T09:39:46;99597.69;;;7.08;35.57
38530;BME280;24301;54.332;48.386;2022-10-22T09:42:16;99594.03;;;6.92;36.17
38530;BME280;24301;54.332;48.386;2022-10-22T09:44:43;99596.38;;;6.66;36.47
38530;BME280;24301;54.332;48.386;2022-10-22T09:47:31;99599.84;;;6.65;36.06
38530;BME280;24301;54.332;48.386;2022-10-22T09:55:40;99591.53;;;7.03;35.38
38530;BME280;24301;54.332;48.386;2022-10-22T09:58:10;99589.75;;;6.99;35.27
38530;BME280;24301;54.332;48.386;2022-10-22T10:00:46;99588.88;;;6.97;35.49
38530;BME280;24301;54.332;48.386;2022-10-22T10:03:20;99594.16;;;7.04;35.33
38530;BME280;24301;54.332;48.386;2022-10-22T10:05:52;99589.84;;;7.08;35.42
38530;BME280;24301;54.332;48.386;2022-10-22T10:08:18;99589.84;;;7.08;35.30
38530;BME280;24301;54.332;48.386;2022-10-22T10:10:45;99589.69;;;6.93;35.54
38530;BME280;24301;54.332;48.386;2022-10-22T10:13:42;99590.25;;;6.64;34.84
38530;BME280;24301;54.332;48.386;2022-10-22T10:19:40;99590.44;;;6.82;35.30
38530;BME280;24301;54.332;48.386;2022-10-22T10:27:41;99589.66;;;6.88;34.54
38530;BME280;24301;54.332;48.386;2022-10-22T10:30:20;99585.16;;;6.78;35.06
38530;BME280;24301;54.332;48.386;2022-10-22T10:33:18;99584.28;;;6.74;35.27
38530;BME280;24301;54.332;48.386;2022-10-22T10:36:08;99582.59;;;6.79;35.65
38530;BME280;24301;54.332;48.386;2022-10-22T10:41:47;99584.53;;;7.00;34.77
38530;BME280;24301;54.332;48.386;2022-10-22T10:44:25;99583.66;;;7.00;34.83
38530;BME280;24301;54.332;48.386;2022-10-22T10:50:28;99595.81;;;6.96;34.43
38530;BME280;24301;54.332;48.386;2022-10-22T10:53:09;99595.00;;;6.99;34.42
38530;BME280;24301;54.332;48.386;2022-10-22T10:59:08;99589.59;;;6.83;33.95
38530;BME280;24301;54.332;48.386;2022-10-22T11:01:46;99597.25;;;6.66;34.59
38530;BME280;24301;54.332;48.386;2022-10-22T11:07:19;99592.94;;;6.70;33.77
38530;BME280;24301;54.332;48.386;2022-10-22T11:09:53;99609.56;;;6.80;33.33
38530;BME280;24301;54.332;48.386;2022-10-22T11:12:33;99601.78;;;6.84;33.67
38530;BME280;24301;54.332;48.386;2022-10-22T11:15:08;99612.28;;;6.87;34.16
38530;BME280;24301;54.332;48.386;2022-10-22T11:17:43;99602.66;;;6.83;33.76
38530;BME280;24301;54.332;48.386;2022-10-22T11:20:28;99602.59;;;6.77;33.58
38530;BME280;24301;54.332;48.386;2022-10-22T11:23:00;99611.19;;;6.67;34.14
38530;BME280;24301;54.332;48.386;2022-10-22T11:25:33;99604.19;;;6.66;34.60
38530;BME280;24301;54.332;48.386;2022-10-22T11:30:37;99606.94;;;6.75;34.63
38530;BME280;24301;54.332;48.386;2022-10-22T11:33:10;99606.03;;;6.70;34.69
38530;BME280;24301;54.332;48.386;2022-10-22T11:35:41;99601.59;;;6.66;34.47
38530;BME280;24301;54.332;48.386;2022-10-22T11:38:12;99614.59;;;6.58;34.68
38530;BME280;24301;54.332;48.386;2022-10-22T11:41:09;99594.44;;;6.47;34.90
38530;BME280;24301;54.332;48.386;2022-10-22T11:43:34;99603.19;;;6.53;34.94
38530;BME280;24301;54.332;48.386;2022-10-22T11:48:42;99600.56;;;6.51;35.09
38530;BME280;24301;54.332;48.386;2022-10-22T11:51:28;99606.53;;;6.41;35.22
38530;BME280;24301;54.332;48.386;2022-10-22T11:54:00;99601.25;;;6.36;36.17
38530;BME280;24301;54.332;48.386;2022-10-22T11:56:36;99604.69;;;6.33;36.86
38530;BME280;24301;54.332;48.386;2022-10-22T11:59:03;99612.28;;;6.13;37.40
38530;BME280;24301;54.332;48.386;2022-10-22T12:01:40;99609.41;;;5.96;38.79
38530;BME280;24301;54.332;48.386;2022-10-22T12:04:17;99610.13;;;5.84;38.63
38530;BME280;24301;54.332;48.386;2022-10-22T12:07:00;99599.47;;;5.72;40.52
38530;BME280;24301;54.332;48.386;2022-10-22T12:09:28;99600.16;;;5.60;40.50
38530;BME280;24301;54.332;48.386;2022-10-22T12:12:13;99603.75;;;5.68;40.63
38530;BME280;24301;54.332;48.386;2022-10-22T12:14:56;99609.91;;;5.70;41.60
38530;BME280;24301;54.332;48.386;2022-10-22T12:17:23;99594.81;;;5.51;41.08
38530;BME280;24301;54.332;48.386;2022-10-22T12:19:59;99602.47;;;5.40;42.36
38530;BME280;24301;54.332;48.386;2022-10-22T12:22:31;99608.44;;;5.32;42.74
38530;BME280;24301;54.332;48.386;2022-10-22T12:25:05;99608.28;;;5.23;42.91
38530;BME280;24301;54.332;48.386;2022-10-22T12:27:36;99610.06;;;5.26;42.76
38530;BME280;24301;54.332;48.386;2022-10-22T12:30:21;99612.63;;;5.24;43.04
38530;BME280;24301;54.332;48.386;2022-10-22T12:32:51;99607.38;;;5.21;43.22
38530;BME280;24301;54.332;48.386;2022-10-22T12:35:21;99613.44;;;5.18;42.87
38530;BME280;24301;54.332;48.386;2022-10-22T12:37:55;99619.50;;;5.19;43.08
38530;BME280;24301;54.332;48.386;2022-10-22T12:42:59;99611.47;;;5.08;43.51
38530;BME280;24301;54.332;48.386;2022-10-22T12:45:32;99615.78;;;5.06;43.82
38530;BME280;24301;54.332;48.386;2022-10-22T12:48:01;99628.63;;;4.94;44.18
38530;BME280;24301;54.332;48.386;2022-10-22T12:50:38;99614.50;;;4.82;44.39
38530;BME280;24301;54.332;48.386;2022-10-22T12:53:16;99622.31;;;4.82;45.01
38530;BME280;24301;54.332;48.386;2022-10-22T12:55:48;99621.44;;;4.82;45.07
38530;BME280;24301;54.332;48.386;2022-10-22T12:58:16;99632.81;;;4.87;45.08
38530;BME280;24301;54.332;48.386;2022-10-22T13:00:45;99629.38;;;4.89;44.77
38530;BME280;24301;54.332;48.386;2022-10-22T13:03:35;99617.13;;;4.84;45.18
38530;BME280;24301;54.332;48.386;2022-10-22T13:09:12;99623.31;;;4.91;45.84
38530;BME280;24301;54.332;48.386;2022-10-22T13:11:52;99625.06;;;4.92;45.12
38530;BME280;24301;54.332;48.386;2022-10-22T13:17:15;99633.63;;;4.84;45.53
38530;BME280;24301;54.332;48.386;2022-10-22T13:22:32;99630.88;;;4.75;45.67
38530;BME280;24301;54.332;48.386;2022-10-22T13:25:23;99635.88;;;4.66;45.65
38530;BME280;24301;54.332;48.386;2022-10-22T13:28:18;99631.34;;;4.55;46.61
38530;BME280;24301;54.332;48.386;2022-10-22T13:30:59;99632.88;;;4.44;46.38
38530;BME280;24301;54.332;48.386;2022-10-22T13:33:29;99634.34;;;4.32;46.34
38530;BME280;24301;54.332;48.386;2022-10-22T13:35:58;99625.50;;;4.24;46.29
38530;BME280;24301;54.332;48.386;2022-10-22T13:38:25;99629.94;;;4.28;46.78
38530;BME280;24301;54.332;48.386;2022-10-22T13:40:51;99620.25;;;4.21;46.62
38530;BME280;24301;54.332;48.386;2022-10-22T13:43:18;99632.34;;;4.19;46.82
38530;BME280;24301;54.332;48.386;2022-10-22T13:45:47;99633.94;;;4.14;47.13
38530;BME280;24301;54.332;48.386;2022-10-22T13:48:18;99626.84;;;4.07;47.17
38530;BME280;24301;54.332;48.386;2022-10-22T13:50:47;99632.72;;;3.96;47.01
38530;BME280;24301;54.332;48.386;2022-10-22T13:53:20;99637.03;;;3.96;47.23
38530;BME280;24301;54.332;48.386;2022-10-22T13:55:47;99634.34;;;3.93;47.24
38530;BME280;24301;54.332;48.386;2022-10-22T13:58:19;99629.81;;;3.84;47.45
38530;BME280;24301;54.332;48.386;2022-10-22T14:00:54;99627.00;;;3.74;47.55
38530;BME280;24301;54.332;48.386;2022-10-22T14:03:25;99636.50;;;3.72;47.36
38530;BME280;24301;54.332;48.386;2022-10-22T14:05:53;99642.47;;;3.68;47.27
38530;BME280;24301;54.332;48.386;2022-10-22T14:08:21;99643.31;;;3.67;47.65
38530;BME280;24301;54.332;48.386;2022-10-22T14:10:48;99627.47;;;3.58;47.48
38530;BME280;24301;54.332;48.386;2022-10-22T14:13:15;99636.25;;;3.63;47.47
38530;BME280;24301;54.332;48.386;2022-10-22T14:15:42;99634.44;;;3.59;47.53
38530;BME280;24301;54.332;48.386;2022-10-22T14:18:13;99640.59;;;3.63;48.04
38530;BME280;24301;54.332;48.386;2022-10-22T14:20:41;99643.16;;;3.61;47.67
38530;BME280;24301;54.332;48.386;2022-10-22T14:23:18;99641.44;;;3.62;48.05
38530;BME280;24301;54.332;48.386;2022-10-22T14:25:47;99644.88;;;3.61;47.50
38530;BME280;24301;54.332;48.386;2022-10-22T14:28:15;99645.75;;;3.61;47.62